sensor_id;sensor_type;location;lat;lon;timestamp;P1;durP1;ratioP1;P2;durP2;ratioP2
14294;SDS011;7231;59.370;18.016;2022-07-29T00:00:22;4.25;;;1.08;;
14294;SDS011;7231;59.370;18.016;2022-07-29T00:02:50;1.40;;;0.50;;
14294;SDS011;7231;59.370;18.016;2022-07-29T00:05:19;1.60;;;0.88;;
14294;SDS011;7231;59.370;18.016;2022-07-29T00:07:47;3.25;;;0.60;;
14294;SDS011;7231;59.370;18.016;2022-07-29T00:10:15;1.92;;;0.80;;
14294;SDS011;7231;59.370;18.016;2022-07-29T00:12:44;2.67;;;0.57;;
14294;SDS011;7231;59.370;18.016;2022-07-29T00:15:13;1.83;;;0.60;;
14294;SDS011;7231;59.370;18.016;2022-07-29T00:17:41;1.90;;;0.63;;
14294;SDS011;7231;59.370;18.016;2022-07-29T00:20:09;2.95;;;0.52;;
14294;SDS011;7231;59.370;18.016;2022-07-29T00:22:38;0.82;;;0.60;;
14294;SDS011;7231;59.370;18.016;2022-07-29T00:25:06;1.13;;;0.40;;
14294;SDS011;7231;59.370;18.016;2022-07-29T00:27:35;1.98;;;0.50;;
14294;SDS011;7231;59.370;18.016;2022-07-29T00:30:04;2.65;;;0.50;;
14294;SDS011;7231;59.370;18.016;2022-07-29T00:32:35;0.60;;;0.40;;
14294;SDS011;7231;59.370;18.016;2022-07-29T00:35:03;0.98;;;0.60;;
14294;SDS011;7231;59.370;18.016;2022-07-29T00:37:50;2.13;;;0.40;;
14294;SDS011;7231;59.370;18.016;2022-07-29T00:40:18;1.25;;;0.40;;
14294;SDS011;7231;59.370;18.016;2022-07-29T00:42:51;2.17;;;0.40;;
14294;SDS011;7231;59.370;18.016;2022-07-29T00:45:20;0.68;;;0.38;;
14294;SDS011;7231;59.370;18.016;2022-07-29T00:47:49;1.30;;;0.43;;
14294;SDS011;7231;59.370;18.016;2022-07-29T00:50:17;0.95;;;0.50;;
14294;SDS011;7231;59.370;18.016;2022-07-29T00:52:46;2.03;;;0.63;;
14294;SDS011;7231;59.370;18.016;2022-07-29T00:55:15;1.63;;;0.68;;
14294;SDS011;7231;59.370;18.016;2022-07-29T00:57:43;3.70;;;0.60;;
14294;SDS011;7231;59.370;18.016;2022-07-29T01:00:13;1.80;;;0.68;;
14294;SDS011;7231;59.370;18.016;2022-07-29T01:02:43;2.63;;;0.70;;
14294;SDS011;7231;59.370;18.016;2022-07-29T01:05:16;1.67;;;0.60;;
14294;SDS011;7231;59.370;18.016;2022-07-29T01:07:46;0.73;;;0.60;;
14294;SDS011;7231;59.370;18.016;2022-07-29T01:10:16;2.45;;;0.55;;
14294;SDS011;7231;59.370;18.016;2022-07-29T01:12:46;1.08;;;0.60;;
14294;SDS011;7231;59.370;18.016;2022-07-29T01:15:16;1.92;;;0.52;;
14294;SDS011;7231;59.370;18.016;2022-07-29T01:17:45;3.40;;;0.43;;
14294;SDS011;7231;59.370;18.016;2022-07-29T01:20:22;0.70;;;0.50;;
14294;SDS011;7231;59.370;18.016;2022-07-29T01:26:04;1.35;;;0.65;;
14294;SDS011;7231;59.370;18.016;2022-07-29T01:29:00;1.13;;;0.60;;
14294;SDS011;7231;59.370;18.016;2022-07-29T01:31:35;2.13;;;0.60;;
14294;SDS011;7231;59.370;18.016;2022-07-29T01:34:27;0.75;;;0.43;;
14294;SDS011;7231;59.370;18.016;2022-07-29T01:37:04;0.75;;;0.60;;
14294;SDS011;7231;59.370;18.016;2022-07-29T01:39:36;1.30;;;0.60;;
14294;SDS011;7231;59.370;18.016;2022-07-29T01:42:06;3.58;;;0.50;;
14294;SDS011;7231;59.370;18.016;2022-07-29T01:44:45;1.92;;;0.70;;
14294;SDS011;7231;59.370;18.016;2022-07-29T01:47:19;2.58;;;0.65;;
14294;SDS011;7231;59.370;18.016;2022-07-29T01:49:51;1.25;;;0.50;;
14294;SDS011;7231;59.370;18.016;2022-07-29T01:52:23;0.93;;;0.70;;
14294;SDS011;7231;59.370;18.016;2022-07-29T01:54:57;1.38;;;0.60;;
14294;SDS011;7231;59.370;18.016;2022-07-29T01:57:30;1.58;;;0.77;;
14294;SDS011;7231;59.370;18.016;2022-07-29T02:00:03;3.28;;;1.90;;
14294;SDS011;7231;59.370;18.016;2022-07-29T02:02:32;0.80;;;0.73;;
14294;SDS011;7231;59.370;18.016;2022-07-29T02:05:04;2.30;;;1.00;;
14294;SDS011;7231;59.370;18.016;2022-07-29T02:07:35;4.60;;;0.88;;
14294;SDS011;7231;59.370;18.016;2022-07-29T02:10:05;1.35;;;0.65;;
14294;SDS011;7231;59.370;18.016;2022-07-29T02:12:35;2.83;;;0.90;;
14294;SDS011;7231;59.370;18.016;2022-07-29T02:15:06;1.52;;;0.80;;
14294;SDS011;7231;59.370;18.016;2022-07-29T02:17:38;3.47;;;0.80;;
14294;SDS011;7231;59.370;18.016;2022-07-29T02:20:09;1.10;;;0.80;;
14294;SDS011;7231;59.370;18.016;2022-07-29T02:22:38;0.95;;;0.77;;
14294;SDS011;7231;59.370;18.016;2022-07-29T02:25:07;2.70;;;1.00;;
14294;SDS011;7231;59.370;18.016;2022-07-29T02:27:39;1.30;;;0.80;;
14294;SDS011;7231;59.370;18.016;2022-07-29T02:30:11;3.88;;;1.33;;
14294;SDS011;7231;59.370;18.016;2022-07-29T02:32:40;2.35;;;0.95;;
14294;SDS011;7231;59.370;18.016;2022-07-29T02:35:12;1.83;;;1.05;;
14294;SDS011;7231;59.370;18.016;2022-07-29T02:37:43;1.17;;;0.90;;
14294;SDS011;7231;59.370;18.016;2022-07-29T02:40:33;1.63;;;0.93;;
14294;SDS011;7231;59.370;18.016;2022-07-29T02:43:03;0.82;;;0.75;;
14294;SDS011;7231;59.370;18.016;2022-07-29T02:45:35;1.42;;;0.88;;
14294;SDS011;7231;59.370;18.016;2022-07-29T02:48:04;0.95;;;0.68;;
14294;SDS011;7231;59.370;18.016;2022-07-29T02:50:38;1.35;;;1.05;;
14294;SDS011;7231;59.370;18.016;2022-07-29T02:53:14;1.35;;;0.80;;
14294;SDS011;7231;59.370;18.016;2022-07-29T02:55:46;1.25;;;0.68;;
14294;SDS011;7231;59.370;18.016;2022-07-29T02:58:19;0.82;;;0.60;;
14294;SDS011;7231;59.370;18.016;2022-07-29T03:00:56;1.10;;;0.65;;
14294;SDS011;7231;59.370;18.016;2022-07-29T03:03:27;5.55;;;0.90;;
14294;SDS011;7231;59.370;18.016;2022-07-29T03:06:00;1.40;;;0.80;;
14294;SDS011;7231;59.370;18.016;2022-07-29T03:08:29;1.52;;;0.80;;
14294;SDS011;7231;59.370;18.016;2022-07-29T03:10:59;2.20;;;1.00;;
14294;SDS011;7231;59.370;18.016;2022-07-29T03:13:29;1.65;;;0.90;;
14294;SDS011;7231;59.370;18.016;2022-07-29T03:15:59;2.42;;;0.60;;
14294;SDS011;7231;59.370;18.016;2022-07-29T03:18:29;1.50;;;0.88;;
14294;SDS011;7231;59.370;18.016;2022-07-29T03:20:58;0.80;;;0.60;;
14294;SDS011;7231;59.370;18.016;2022-07-29T03:23:26;1.00;;;0.60;;
14294;SDS011;7231;59.370;18.016;2022-07-29T03:26:02;1.70;;;0.88;;
14294;SDS011;7231;59.370;18.016;2022-07-29T03:28:30;1.25;;;0.70;;
14294;SDS011;7231;59.370;18.016;2022-07-29T03:31:00;0.57;;;0.57;;
14294;SDS011;7231;59.370;18.016;2022-07-29T03:33:31;3.10;;;0.90;;
14294;SDS011;7231;59.370;18.016;2022-07-29T03:35:59;0.70;;;0.70;;
14294;SDS011;7231;59.370;18.016;2022-07-29T03:38:29;2.55;;;0.80;;
14294;SDS011;7231;59.370;18.016;2022-07-29T03:41:02;1.42;;;0.88;;
14294;SDS011;7231;59.370;18.016;2022-07-29T03:43:34;2.05;;;0.82;;
14294;SDS011;7231;59.370;18.016;2022-07-29T03:46:16;0.90;;;0.77;;
14294;SDS011;7231;59.370;18.016;2022-07-29T03:48:48;1.17;;;0.80;;
14294;SDS011;7231;59.370;18.016;2022-07-29T03:51:20;1.67;;;0.85;;
14294;SDS011;7231;59.370;18.016;2022-07-29T03:53:59;1.58;;;0.85;;
14294;SDS011;7231;59.370;18.016;2022-07-29T03:56:37;1.75;;;0.70;;
14294;SDS011;7231;59.370;18.016;2022-07-29T03:59:07;1.90;;;0.60;;
14294;SDS011;7231;59.370;18.016;2022-07-29T04:01:39;1.85;;;0.75;;
14294;SDS011;7231;59.370;18.016;2022-07-29T04:04:09;1.25;;;0.80;;
14294;SDS011;7231;59.370;18.016;2022-07-29T04:06:38;2.67;;;0.80;;
14294;SDS011;7231;59.370;18.016;2022-07-29T04:09:07;2.05;;;0.70;;
14294;SDS011;7231;59.370;18.016;2022-07-29T04:11:36;2.15;;;0.60;;
14294;SDS011;7231;59.370;18.016;2022-07-29T04:14:26;1.52;;;0.70;;
14294;SDS011;7231;59.370;18.016;2022-07-29T04:16:55;0.80;;;0.70;;
14294;SDS011;7231;59.370;18.016;2022-07-29T04:19:23;2.80;;;0.80;;
14294;SDS011;7231;59.370;18.016;2022-07-29T04:21:51;1.65;;;0.70;;
14294;SDS011;7231;59.370;18.016;2022-07-29T04:24:19;2.63;;;0.60;;
14294;SDS011;7231;59.370;18.016;2022-07-29T04:26:47;1.60;;;1.05;;
14294;SDS011;7231;59.370;18.016;2022-07-29T04:29:18;2.67;;;0.77;;
14294;SDS011;7231;59.370;18.016;2022-07-29T04:31:46;1.00;;;0.60;;
14294;SDS011;7231;59.370;18.016;2022-07-29T04:34:16;1.30;;;0.70;;
14294;SDS011;7231;59.370;18.016;2022-07-29T04:36:45;1.65;;;0.80;;
14294;SDS011;7231;59.370;18.016;2022-07-29T04:39:13;2.65;;;0.70;;
14294;SDS011;7231;59.370;18.016;2022-07-29T04:41:47;0.80;;;0.70;;
14294;SDS011;7231;59.370;18.016;2022-07-29T04:44:20;3.70;;;0.70;;
14294;SDS011;7231;59.370;18.016;2022-07-29T04:46:54;1.42;;;0.80;;
14294;SDS011;7231;59.370;18.016;2022-07-29T04:49:23;2.35;;;0.70;;
14294;SDS011;7231;59.370;18.016;2022-07-29T04:51:52;1.38;;;0.70;;
14294;SDS011;7231;59.370;18.016;2022-07-29T04:54:20;1.48;;;0.80;;
14294;SDS011;7231;59.370;18.016;2022-07-29T04:56:50;1.83;;;0.50;;
14294;SDS011;7231;59.370;18.016;2022-07-29T04:59:18;2.35;;;0.90;;
14294;SDS011;7231;59.370;18.016;2022-07-29T05:01:46;2.25;;;0.90;;
14294;SDS011;7231;59.370;18.016;2022-07-29T05:04:14;1.15;;;0.52;;
14294;SDS011;7231;59.370;18.016;2022-07-29T05:06:44;0.90;;;0.70;;
14294;SDS011;7231;59.370;18.016;2022-07-29T05:09:12;2.65;;;0.70;;
14294;SDS011;7231;59.370;18.016;2022-07-29T05:11:40;3.17;;;0.65;;
14294;SDS011;7231;59.370;18.016;2022-07-29T05:14:07;1.15;;;0.77;;
14294;SDS011;7231;59.370;18.016;2022-07-29T05:16:35;3.55;;;1.00;;
14294;SDS011;7231;59.370;18.016;2022-07-29T05:19:05;3.60;;;0.70;;
14294;SDS011;7231;59.370;18.016;2022-07-29T05:21:39;1.60;;;0.50;;
14294;SDS011;7231;59.370;18.016;2022-07-29T05:24:09;0.60;;;0.50;;
14294;SDS011;7231;59.370;18.016;2022-07-29T05:26:38;2.53;;;0.50;;
14294;SDS011;7231;59.370;18.016;2022-07-29T05:29:06;2.30;;;0.80;;
14294;SDS011;7231;59.370;18.016;2022-07-29T05:31:54;1.15;;;0.60;;
14294;SDS011;7231;59.370;18.016;2022-07-29T05:34:22;1.15;;;0.60;;
14294;SDS011;7231;59.370;18.016;2022-07-29T05:36:51;2.05;;;0.60;;
14294;SDS011;7231;59.370;18.016;2022-07-29T05:39:21;1.45;;;0.70;;
14294;SDS011;7231;59.370;18.016;2022-07-29T05:42:10;1.88;;;0.65;;
14294;SDS011;7231;59.370;18.016;2022-07-29T05:44:38;3.50;;;0.60;;
14294;SDS011;7231;59.370;18.016;2022-07-29T05:47:06;1.38;;;0.40;;
14294;SDS011;7231;59.370;18.016;2022-07-29T05:49:34;3.13;;;0.60;;
14294;SDS011;7231;59.370;18.016;2022-07-29T05:52:02;2.15;;;0.50;;
14294;SDS011;7231;59.370;18.016;2022-07-29T05:54:32;0.55;;;0.43;;
14294;SDS011;7231;59.370;18.016;2022-07-29T05:57:00;2.78;;;0.40;;
14294;SDS011;7231;59.370;18.016;2022-07-29T05:59:28;1.73;;;0.47;;
14294;SDS011;7231;59.370;18.016;2022-07-29T06:01:56;3.65;;;0.40;;
14294;SDS011;7231;59.370;18.016;2022-07-29T06:04:24;0.82;;;0.50;;
14294;SDS011;7231;59.370;18.016;2022-07-29T06:06:53;1.00;;;0.55;;
14294;SDS011;7231;59.370;18.016;2022-07-29T06:09:21;1.42;;;0.40;;
14294;SDS011;7231;59.370;18.016;2022-07-29T06:11:50;1.55;;;0.47;;
14294;SDS011;7231;59.370;18.016;2022-07-29T06:14:18;0.57;;;0.30;;
14294;SDS011;7231;59.370;18.016;2022-07-29T06:16:46;0.47;;;0.35;;
14294;SDS011;7231;59.370;18.016;2022-07-29T06:19:15;0.30;;;0.30;;
14294;SDS011;7231;59.370;18.016;2022-07-29T06:21:43;1.02;;;0.30;;
14294;SDS011;7231;59.370;18.016;2022-07-29T06:24:12;0.57;;;0.30;;
14294;SDS011;7231;59.370;18.016;2022-07-29T06:26:41;1.13;;;0.50;;
14294;SDS011;7231;59.370;18.016;2022-07-29T06:29:11;1.30;;;0.28;;
14294;SDS011;7231;59.370;18.016;2022-07-29T06:31:39;0.30;;;0.30;;
14294;SDS011;7231;59.370;18.016;2022-07-29T06:34:07;0.40;;;0.30;;
14294;SDS011;7231;59.370;18.016;2022-07-29T06:36:36;1.15;;;0.43;;
14294;SDS011;7231;59.370;18.016;2022-07-29T06:39:06;0.20;;;0.20;;
14294;SDS011;7231;59.370;18.016;2022-07-29T06:41:37;1.05;;;0.40;;
14294;SDS011;7231;59.370;18.016;2022-07-29T06:44:05;3.13;;;0.40;;
14294;SDS011;7231;59.370;18.016;2022-07-29T06:46:34;2.92;;;0.40;;
14294;SDS011;7231;59.370;18.016;2022-07-29T06:49:03;0.90;;;0.40;;
14294;SDS011;7231;59.370;18.016;2022-07-29T06:51:31;0.30;;;0.30;;
14294;SDS011;7231;59.370;18.016;2022-07-29T06:53:59;1.25;;;0.30;;
14294;SDS011;7231;59.370;18.016;2022-07-29T06:56:29;1.13;;;0.30;;
14294;SDS011;7231;59.370;18.016;2022-07-29T06:59:05;0.35;;;0.30;;
14294;SDS011;7231;59.370;18.016;2022-07-29T07:01:35;0.30;;;0.30;;
14294;SDS011;7231;59.370;18.016;2022-07-29T07:04:03;1.10;;;0.28;;
14294;SDS011;7231;59.370;18.016;2022-07-29T07:06:31;0.35;;;0.20;;
14294;SDS011;7231;59.370;18.016;2022-07-29T07:08:59;0.40;;;0.30;;
14294;SDS011;7231;59.370;18.016;2022-07-29T07:11:27;0.38;;;0.35;;
14294;SDS011;7231;59.370;18.016;2022-07-29T07:13:56;0.20;;;0.20;;
14294;SDS011;7231;59.370;18.016;2022-07-29T07:16:29;0.28;;;0.20;;
14294;SDS011;7231;59.370;18.016;2022-07-29T07:19:00;0.47;;;0.30;;
14294;SDS011;7231;59.370;18.016;2022-07-29T07:21:28;1.15;;;0.20;;
14294;SDS011;7231;59.370;18.016;2022-07-29T07:23:57;0.80;;;0.30;;
14294;SDS011;7231;59.370;18.016;2022-07-29T07:26:25;0.50;;;0.20;;
14294;SDS011;7231;59.370;18.016;2022-07-29T07:28:54;1.52;;;0.20;;
14294;SDS011;7231;59.370;18.016;2022-07-29T07:31:22;0.60;;;0.38;;
14294;SDS011;7231;59.370;18.016;2022-07-29T07:33:50;0.40;;;0.30;;
14294;SDS011;7231;59.370;18.016;2022-07-29T07:36:21;1.35;;;0.30;;
14294;SDS011;7231;59.370;18.016;2022-07-29T07:38:49;0.40;;;0.20;;
14294;SDS011;7231;59.370;18.016;2022-07-29T07:41:17;1.65;;;0.40;;
14294;SDS011;7231;59.370;18.016;2022-07-29T07:43:45;0.20;;;0.10;;
14294;SDS011;7231;59.370;18.016;2022-07-29T07:46:13;0.35;;;0.25;;
14294;SDS011;7231;59.370;18.016;2022-07-29T07:48:42;0.40;;;0.20;;
14294;SDS011;7231;59.370;18.016;2022-07-29T07:51:10;0.45;;;0.40;;
14294;SDS011;7231;59.370;18.016;2022-07-29T07:53:40;0.63;;;0.30;;
14294;SDS011;7231;59.370;18.016;2022-07-29T07:56:08;0.22;;;0.20;;
14294;SDS011;7231;59.370;18.016;2022-07-29T07:58:38;1.67;;;0.30;;
14294;SDS011;7231;59.370;18.016;2022-07-29T08:01:06;0.65;;;0.30;;
14294;SDS011;7231;59.370;18.016;2022-07-29T08:03:35;0.52;;;0.20;;
14294;SDS011;7231;59.370;18.016;2022-07-29T08:06:03;0.98;;;0.30;;
14294;SDS011;7231;59.370;18.016;2022-07-29T08:08:31;1.02;;;0.32;;
14294;SDS011;7231;59.370;18.016;2022-07-29T08:11:01;0.38;;;0.25;;
14294;SDS011;7231;59.370;18.016;2022-07-29T08:13:35;0.40;;;0.30;;
14294;SDS011;7231;59.370;18.016;2022-07-29T08:16:04;0.63;;;0.30;;
14294;SDS011;7231;59.370;18.016;2022-07-29T08:18:39;0.30;;;0.20;;
14294;SDS011;7231;59.370;18.016;2022-07-29T08:21:08;0.22;;;0.22;;
14294;SDS011;7231;59.370;18.016;2022-07-29T08:23:40;0.68;;;0.22;;
14294;SDS011;7231;59.370;18.016;2022-07-29T08:26:25;0.40;;;0.20;;
14294;SDS011;7231;59.370;18.016;2022-07-29T08:28:53;1.20;;;0.32;;
14294;SDS011;7231;59.370;18.016;2022-07-29T08:31:21;0.30;;;0.20;;
14294;SDS011;7231;59.370;18.016;2022-07-29T08:33:49;1.10;;;0.30;;
14294;SDS011;7231;59.370;18.016;2022-07-29T08:36:18;0.20;;;0.20;;
14294;SDS011;7231;59.370;18.016;2022-07-29T08:38:47;0.35;;;0.22;;
14294;SDS011;7231;59.370;18.016;2022-07-29T08:41:15;1.27;;;0.20;;
14294;SDS011;7231;59.370;18.016;2022-07-29T08:43:46;0.57;;;0.20;;
14294;SDS011;7231;59.370;18.016;2022-07-29T08:46:15;0.20;;;0.10;;
14294;SDS011;7231;59.370;18.016;2022-07-29T08:48:44;0.20;;;0.20;;
14294;SDS011;7231;59.370;18.016;2022-07-29T08:51:13;0.35;;;0.30;;
14294;SDS011;7231;59.370;18.016;2022-07-29T08:53:43;1.55;;;0.35;;
14294;SDS011;7231;59.370;18.016;2022-07-29T08:56:13;1.45;;;0.20;;
14294;SDS011;7231;59.370;18.016;2022-07-29T08:58:43;0.55;;;0.22;;
14294;SDS011;7231;59.370;18.016;2022-07-29T09:01:20;0.63;;;0.40;;
14294;SDS011;7231;59.370;18.016;2022-07-29T09:04:10;0.25;;;0.20;;
14294;SDS011;7231;59.370;18.016;2022-07-29T09:06:40;0.77;;;0.30;;
14294;SDS011;7231;59.370;18.016;2022-07-29T09:09:11;0.57;;;0.20;;
14294;SDS011;7231;59.370;18.016;2022-07-29T09:11:41;0.25;;;0.25;;
14294;SDS011;7231;59.370;18.016;2022-07-29T09:14:10;2.38;;;0.40;;
14294;SDS011;7231;59.370;18.016;2022-07-29T09:16:48;1.20;;;0.20;;
14294;SDS011;7231;59.370;18.016;2022-07-29T09:19:26;0.50;;;0.30;;
14294;SDS011;7231;59.370;18.016;2022-07-29T09:21:56;1.17;;;0.30;;
14294;SDS011;7231;59.370;18.016;2022-07-29T09:24:24;0.35;;;0.20;;
14294;SDS011;7231;59.370;18.016;2022-07-29T09:26:54;0.20;;;0.20;;
14294;SDS011;7231;59.370;18.016;2022-07-29T09:29:23;0.35;;;0.20;;
14294;SDS011;7231;59.370;18.016;2022-07-29T09:31:53;2.85;;;0.30;;
14294;SDS011;7231;59.370;18.016;2022-07-29T09:34:23;0.43;;;0.30;;
14294;SDS011;7231;59.370;18.016;2022-07-29T09:36:53;2.88;;;1.55;;
14294;SDS011;7231;59.370;18.016;2022-07-29T09:39:27;0.65;;;0.40;;
14294;SDS011;7231;59.370;18.016;2022-07-29T09:41:57;0.47;;;0.30;;
14294;SDS011;7231;59.370;18.016;2022-07-29T09:44:26;0.70;;;0.30;;
14294;SDS011;7231;59.370;18.016;2022-07-29T09:47:09;0.88;;;0.30;;
14294;SDS011;7231;59.370;18.016;2022-07-29T09:49:49;1.02;;;0.30;;
14294;SDS011;7231;59.370;18.016;2022-07-29T09:52:19;0.98;;;0.30;;
14294;SDS011;7231;59.370;18.016;2022-07-29T09:54:47;0.88;;;0.30;;
14294;SDS011;7231;59.370;18.016;2022-07-29T09:57:22;0.70;;;0.20;;
14294;SDS011;7231;59.370;18.016;2022-07-29T09:59:56;1.88;;;0.40;;
14294;SDS011;7231;59.370;18.016;2022-07-29T10:02:30;0.25;;;0.25;;
14294;SDS011;7231;59.370;18.016;2022-07-29T10:05:00;0.50;;;0.20;;
14294;SDS011;7231;59.370;18.016;2022-07-29T10:07:43;0.40;;;0.28;;
14294;SDS011;7231;59.370;18.016;2022-07-29T10:10:19;1.70;;;0.43;;
14294;SDS011;7231;59.370;18.016;2022-07-29T10:12:52;0.43;;;0.30;;
14294;SDS011;7231;59.370;18.016;2022-07-29T10:15:22;0.63;;;0.20;;
14294;SDS011;7231;59.370;18.016;2022-07-29T10:17:53;0.93;;;0.30;;
14294;SDS011;7231;59.370;18.016;2022-07-29T10:20:22;0.40;;;0.25;;
14294;SDS011;7231;59.370;18.016;2022-07-29T10:22:51;0.45;;;0.20;;
14294;SDS011;7231;59.370;18.016;2022-07-29T10:25:21;2.42;;;0.20;;
14294;SDS011;7231;59.370;18.016;2022-07-29T10:27:50;0.95;;;0.30;;
14294;SDS011;7231;59.370;18.016;2022-07-29T10:30:20;0.50;;;0.20;;
14294;SDS011;7231;59.370;18.016;2022-07-29T10:32:54;1.45;;;0.45;;
14294;SDS011;7231;59.370;18.016;2022-07-29T10:35:44;0.20;;;0.20;;
14294;SDS011;7231;59.370;18.016;2022-07-29T10:38:29;1.05;;;0.40;;
14294;SDS011;7231;59.370;18.016;2022-07-29T10:41:14;0.30;;;0.30;;
14294;SDS011;7231;59.370;18.016;2022-07-29T10:44:17;1.20;;;0.30;;
14294;SDS011;7231;59.370;18.016;2022-07-29T10:46:48;2.00;;;0.50;;
14294;SDS011;7231;59.370;18.016;2022-07-29T10:49:19;0.63;;;0.50;;
14294;SDS011;7231;59.370;18.016;2022-07-29T10:51:51;0.75;;;0.30;;
14294;SDS011;7231;59.370;18.016;2022-07-29T10:54:36;0.28;;;0.28;;
14294;SDS011;7231;59.370;18.016;2022-07-29T10:57:13;1.85;;;0.40;;
14294;SDS011;7231;59.370;18.016;2022-07-29T10:59:43;0.57;;;0.30;;
14294;SDS011;7231;59.370;18.016;2022-07-29T11:05:17;1.38;;;0.20;;
14294;SDS011;7231;59.370;18.016;2022-07-29T11:14:16;0.85;;;0.38;;
14294;SDS011;7231;59.370;18.016;2022-07-29T11:16:58;1.13;;;0.60;;
14294;SDS011;7231;59.370;18.016;2022-07-29T11:19:32;2.40;;;0.38;;
14294;SDS011;7231;59.370;18.016;2022-07-29T11:22:09;2.00;;;0.40;;
14294;SDS011;7231;59.370;18.016;2022-07-29T11:24:41;1.70;;;0.43;;
14294;SDS011;7231;59.370;18.016;2022-07-29T11:27:16;1.10;;;0.20;;
14294;SDS011;7231;59.370;18.016;2022-07-29T11:29:47;0.28;;;0.28;;
14294;SDS011;7231;59.370;18.016;2022-07-29T11:32:19;1.98;;;0.20;;
14294;SDS011;7231;59.370;18.016;2022-07-29T11:34:50;1.23;;;0.30;;
14294;SDS011;7231;59.370;18.016;2022-07-29T11:43:49;0.30;;;0.30;;
14294;SDS011;7231;59.370;18.016;2022-07-29T11:49:18;0.25;;;0.25;;
14294;SDS011;7231;59.370;18.016;2022-07-29T11:51:58;1.65;;;0.45;;
14294;SDS011;7231;59.370;18.016;2022-07-29T11:54:49;0.68;;;0.30;;
14294;SDS011;7231;59.370;18.016;2022-07-29T11:57:34;2.42;;;0.35;;
14294;SDS011;7231;59.370;18.016;2022-07-29T12:00:03;0.75;;;0.50;;
14294;SDS011;7231;59.370;18.016;2022-07-29T12:02:38;0.40;;;0.30;;
14294;SDS011;7231;59.370;18.016;2022-07-29T12:05:09;0.88;;;0.40;;
14294;SDS011;7231;59.370;18.016;2022-07-29T12:07:38;0.88;;;0.38;;
14294;SDS011;7231;59.370;18.016;2022-07-29T12:10:14;0.50;;;0.40;;
14294;SDS011;7231;59.370;18.016;2022-07-29T12:12:54;0.38;;;0.30;;
14294;SDS011;7231;59.370;18.016;2022-07-29T12:15:24;0.95;;;0.30;;
14294;SDS011;7231;59.370;18.016;2022-07-29T12:18:12;0.30;;;0.30;;
14294;SDS011;7231;59.370;18.016;2022-07-29T12:20:44;0.40;;;0.40;;
14294;SDS011;7231;59.370;18.016;2022-07-29T12:23:13;0.32;;;0.30;;
14294;SDS011;7231;59.370;18.016;2022-07-29T12:25:45;0.40;;;0.40;;
14294;SDS011;7231;59.370;18.016;2022-07-29T12:28:15;1.35;;;0.40;;
14294;SDS011;7231;59.370;18.016;2022-07-29T12:30:52;0.80;;;0.50;;
14294;SDS011;7231;59.370;18.016;2022-07-29T12:33:21;0.30;;;0.30;;
14294;SDS011;7231;59.370;18.016;2022-07-29T12:35:51;0.40;;;0.40;;
14294;SDS011;7231;59.370;18.016;2022-07-29T12:38:33;0.38;;;0.30;;
14294;SDS011;7231;59.370;18.016;2022-07-29T12:41:03;0.70;;;0.30;;
14294;SDS011;7231;59.370;18.016;2022-07-29T12:43:32;0.20;;;0.20;;
14294;SDS011;7231;59.370;18.016;2022-07-29T12:46:11;0.40;;;0.40;;
14294;SDS011;7231;59.370;18.016;2022-07-29T12:48:41;0.35;;;0.30;;
14294;SDS011;7231;59.370;18.016;2022-07-29T12:51:10;0.30;;;0.30;;
14294;SDS011;7231;59.370;18.016;2022-07-29T12:53:41;0.25;;;0.22;;
14294;SDS011;7231;59.370;18.016;2022-07-29T12:56:16;1.38;;;0.30;;
14294;SDS011;7231;59.370;18.016;2022-07-29T12:59:14;0.30;;;0.30;;
14294;SDS011;7231;59.370;18.016;2022-07-29T13:01:43;0.20;;;0.20;;
14294;SDS011;7231;59.370;18.016;2022-07-29T13:04:23;0.40;;;0.30;;
14294;SDS011;7231;59.370;18.016;2022-07-29T13:06:57;0.30;;;0.30;;
14294;SDS011;7231;59.370;18.016;2022-07-29T13:09:35;0.30;;;0.30;;
14294;SDS011;7231;59.370;18.016;2022-07-29T13:12:07;0.88;;;0.40;;
14294;SDS011;7231;59.370;18.016;2022-07-29T13:14:37;0.35;;;0.32;;
14294;SDS011;7231;59.370;18.016;2022-07-29T13:17:07;0.40;;;0.40;;
14294;SDS011;7231;59.370;18.016;2022-07-29T13:19:36;0.55;;;0.40;;
14294;SDS011;7231;59.370;18.016;2022-07-29T13:22:07;2.10;;;0.40;;
14294;SDS011;7231;59.370;18.016;2022-07-29T13:24:44;0.30;;;0.20;;
14294;SDS011;7231;59.370;18.016;2022-07-29T13:27:15;0.22;;;0.22;;
14294;SDS011;7231;59.370;18.016;2022-07-29T13:29:43;0.68;;;0.30;;
14294;SDS011;7231;59.370;18.016;2022-07-29T13:32:11;1.02;;;0.40;;
14294;SDS011;7231;59.370;18.016;2022-07-29T13:34:40;0.40;;;0.40;;
14294;SDS011;7231;59.370;18.016;2022-07-29T13:37:08;0.52;;;0.32;;
14294;SDS011;7231;59.370;18.016;2022-07-29T13:39:36;0.30;;;0.30;;
14294;SDS011;7231;59.370;18.016;2022-07-29T13:42:05;0.65;;;0.43;;
14294;SDS011;7231;59.370;18.016;2022-07-29T13:44:37;0.32;;;0.20;;
14294;SDS011;7231;59.370;18.016;2022-07-29T13:47:06;1.83;;;0.40;;
14294;SDS011;7231;59.370;18.016;2022-07-29T13:49:34;1.02;;;0.50;;
14294;SDS011;7231;59.370;18.016;2022-07-29T13:52:03;0.50;;;0.30;;
14294;SDS011;7231;59.370;18.016;2022-07-29T13:54:33;0.77;;;0.50;;
14294;SDS011;7231;59.370;18.016;2022-07-29T13:57:08;1.42;;;0.50;;
14294;SDS011;7231;59.370;18.016;2022-07-29T13:59:38;0.38;;;0.38;;
14294;SDS011;7231;59.370;18.016;2022-07-29T14:02:07;1.42;;;0.50;;
14294;SDS011;7231;59.370;18.016;2022-07-29T14:04:35;0.50;;;0.40;;
14294;SDS011;7231;59.370;18.016;2022-07-29T14:07:05;0.77;;;0.40;;
14294;SDS011;7231;59.370;18.016;2022-07-29T14:09:34;0.80;;;0.50;;
14294;SDS011;7231;59.370;18.016;2022-07-29T14:12:07;1.92;;;0.50;;
14294;SDS011;7231;59.370;18.016;2022-07-29T14:14:36;0.77;;;0.50;;
14294;SDS011;7231;59.370;18.016;2022-07-29T14:17:05;0.32;;;0.30;;
14294;SDS011;7231;59.370;18.016;2022-07-29T14:19:34;0.40;;;0.32;;
14294;SDS011;7231;59.370;18.016;2022-07-29T14:22:05;0.40;;;0.40;;
14294;SDS011;7231;59.370;18.016;2022-07-29T14:24:36;0.38;;;0.38;;
14294;SDS011;7231;59.370;18.016;2022-07-29T14:27:04;0.73;;;0.30;;
14294;SDS011;7231;59.370;18.016;2022-07-29T14:29:34;0.50;;;0.50;;
14294;SDS011;7231;59.370;18.016;2022-07-29T14:32:06;0.30;;;0.30;;
14294;SDS011;7231;59.370;18.016;2022-07-29T14:34:35;0.60;;;0.40;;
14294;SDS011;7231;59.370;18.016;2022-07-29T14:37:04;1.17;;;0.38;;
14294;SDS011;7231;59.370;18.016;2022-07-29T14:39:41;0.60;;;0.60;;
14294;SDS011;7231;59.370;18.016;2022-07-29T14:42:09;0.55;;;0.35;;
14294;SDS011;7231;59.370;18.016;2022-07-29T14:44:38;0.32;;;0.30;;
14294;SDS011;7231;59.370;18.016;2022-07-29T14:47:09;1.00;;;0.50;;
14294;SDS011;7231;59.370;18.016;2022-07-29T14:49:37;0.63;;;0.40;;
14294;SDS011;7231;59.370;18.016;2022-07-29T14:52:05;0.60;;;0.60;;
14294;SDS011;7231;59.370;18.016;2022-07-29T14:54:33;0.50;;;0.50;;
14294;SDS011;7231;59.370;18.016;2022-07-29T14:57:01;0.40;;;0.40;;
14294;SDS011;7231;59.370;18.016;2022-07-29T14:59:29;0.50;;;0.50;;
14294;SDS011;7231;59.370;18.016;2022-07-29T15:01:57;0.90;;;0.40;;
14294;SDS011;7231;59.370;18.016;2022-07-29T15:04:27;0.50;;;0.50;;
14294;SDS011;7231;59.370;18.016;2022-07-29T15:06:55;1.00;;;0.52;;
14294;SDS011;7231;59.370;18.016;2022-07-29T15:09:23;0.50;;;0.50;;
14294;SDS011;7231;59.370;18.016;2022-07-29T15:11:51;0.40;;;0.40;;
14294;SDS011;7231;59.370;18.016;2022-07-29T15:14:19;1.98;;;0.63;;
14294;SDS011;7231;59.370;18.016;2022-07-29T15:16:47;1.35;;;0.52;;
14294;SDS011;7231;59.370;18.016;2022-07-29T15:19:18;0.70;;;0.40;;
14294;SDS011;7231;59.370;18.016;2022-07-29T15:21:47;0.75;;;0.75;;
14294;SDS011;7231;59.370;18.016;2022-07-29T15:24:15;0.40;;;0.40;;
14294;SDS011;7231;59.370;18.016;2022-07-29T15:26:44;0.82;;;0.82;;
14294;SDS011;7231;59.370;18.016;2022-07-29T15:29:13;0.60;;;0.60;;
14294;SDS011;7231;59.370;18.016;2022-07-29T15:31:41;1.73;;;0.63;;
14294;SDS011;7231;59.370;18.016;2022-07-29T15:34:10;1.33;;;0.60;;